SKBG/BGA METAR and TAF weather

Enter ICAO airport designator
Station Type Date Time Source
SKBG METAR 2020/06/06 19:00 UTC NOAA

SKBG 061900Z 32006KT 9999 FEW010 BKN070 24/20 A3005


Station Type Date Time Source
SKBG Decoded METAR 2020/06/06 19:00 UTC NOAA

Bucaramanga / Palonegro, Colombia (SKBG) 07-06N 073-12W
Jun 06, 2020 - 03:00 PM EDT / 2020.06.06 1900 UTC
Wind: from the NW (320 degrees) at 7 MPH (6 KT):0
Visibility: greater than 7 mile(s):0
Sky conditions: mostly cloudy
Temperature: 75 F (24 C)
Dew Point: 68 F (20 C)
Relative Humidity: 78%
Pressure (altimeter): 30.05 in. Hg (1017 hPa)
ob: SKBG 061900Z 32006KT 9999 FEW010 BKN070 24/20 A3005
cycle: 19

Station Type Date Time Source
SKBG TAF 2020/06/06 18:45 UTC NOAA

TAF TAF SKBG 061630Z 0618/0718 34009KT 9999 SCT015 BKN070
TEMPO 0618/0620 7000 DZ SCT015TCU BKN070
BECMG 0701/0703 00000KT
TEMPO 0709/0712 5000 DZ BCFG SCT005
BECMG 0714/0716 32011KT TX27/0618Z TN18/0711Z

Example: see airport list